Aviation Digital Data Service (ADDS)

Output produced by TAFs form (2235 UTC 03 March 2015)
found at http://aviationweather.gov/adds/tafs/
 
KTCC 031738Z 0318/0418 25015G22KT P6SM VCSH BKN080 
     FM040000 20009KT P6SM BKN060 
     FM040600 05010KT P6SM SCT040 BKN080 
     FM040900 04015KT 5SM BR VCSH OVC015 
     FM041400 06015KT 5SM -SN BR OVC008